Time;durP1;ratioP1;P1;durP2;ratioP2;P2;SDS_P1;SDS_P2;PMS_P1;PMS_P2;Temp;Humidity;BMP_temperature;BMP_pressure;BME280_temperature;BME280_humidity;BME280_pressure;Samples;Min_cycle;Max_cycle;Signal;HPM_P1;HPM_P2
2024/02/11 00:02:28;;;;;;;;;;;;;;;8.85;100.00;96041.38;110526;1242;69300;-62
2024/02/11 00:04:57;;;;;;;;;;;;;;;8.81;100.00;96043.81;110481;1238;69252;-62
2024/02/11 00:07:26;;;;;;;;;;;;;;;8.76;100.00;96038.35;110568;1240;60013;-62
2024/02/11 00:09:55;;;;;;;;;;;;;;;8.71;100.00;96033.42;110579;1241;59636;-62
2024/02/11 00:12:24;;;;;;;;;;;;;;;8.66;100.00;96032.02;110556;1240;71581;-62
2024/02/11 00:14:52;;;;;;;;;;;;;;;8.64;100.00;96023.56;110550;1240;69809;-62
2024/02/11 00:17:21;;;;;;;;;;;;;;;8.62;100.00;96016.79;110541;1238;69744;-62
2024/02/11 00:19:50;;;;;;;;;;;;;;;8.59;100.00;96013.02;110550;1240;59690;-62
2024/02/11 00:22:19;;;;;;;;;;;;;;;8.59;100.00;96010.61;110522;1248;59680;-62
2024/02/11 00:24:49;;;;;;;;;;;;;;;8.62;100.00;96008.23;110556;1239;71335;-64
2024/02/11 00:27:17;;;;;;;;;;;;;;;8.65;100.00;96015.70;110545;1238;69810;-62
2024/02/11 00:29:46;;;;;;;;;;;;;;;8.67;100.00;96011.67;110512;1238;69263;-62
2024/02/11 00:32:15;;;;;;;;;;;;;;;8.68;100.00;96012.24;110400;1241;59675;-62
2024/02/11 00:34:44;;;;;;;;;;;;;;;8.72;100.00;96007.42;110413;1241;59663;-62
2024/02/11 00:37:13;;;;;;;;;;;;;;;8.74;100.00;96007.11;110448;1241;71921;-62
2024/02/11 00:39:42;;;;;;;;;;;;;;;8.75;100.00;96008.73;110439;1238;69180;-62
2024/02/11 00:42:10;;;;;;;;;;;;;;;8.75;100.00;96007.39;110409;1240;69241;-62
2024/02/11 00:44:39;;;;;;;;;;;;;;;8.74;100.00;96003.42;110433;1241;59736;-61
2024/02/11 00:47:08;;;;;;;;;;;;;;;8.72;100.00;96004.27;110465;1240;59671;-62
2024/02/11 00:49:38;;;;;;;;;;;;;;;8.72;100.00;96006.61;110423;1238;71178;-61
2024/02/11 00:52:06;;;;;;;;;;;;;;;8.70;100.00;96002.93;110471;1238;69019;-63
2024/02/11 00:54:37;;;;;;;;;;;;;;;8.66;100.00;95999.88;110505;1241;69181;-63
2024/02/11 00:57:07;;;;;;;;;;;;;;;8.64;100.00;95996.27;110471;1242;59725;-63
2024/02/11 00:59:37;;;;;;;;;;;;;;;8.66;100.00;95992.50;110455;1240;59634;-62
2024/02/11 01:02:06;;;;;;;;;;;;;;;8.69;100.00;95996.73;110500;1242;72140;-62
2024/02/11 01:04:38;;;;;;;;;;;;;;;8.70;100.00;95996.00;110439;1244;69789;-62
2024/02/11 01:07:08;;;;;;;;;;;;;;;8.70;100.00;95994.27;110527;1240;68736;-62
2024/02/11 01:09:37;;;;;;;;;;;;;;;8.70;100.00;95993.89;110459;1238;59750;-63
2024/02/11 01:12:06;;;;;;;;;;;;;;;8.71;100.00;95986.17;110391;1239;59702;-63
2024/02/11 01:14:34;;;;;;;;;;;;;;;8.72;100.00;95988.34;110392;1248;71123;-62
2024/02/11 01:17:03;;;;;;;;;;;;;;;8.71;100.00;95985.98;110460;1238;69187;-61
2024/02/11 01:19:32;;;;;;;;;;;;;;;8.70;100.00;95981.57;110496;1241;68678;-61
2024/02/11 01:22:01;;;;;;;;;;;;;;;8.68;100.00;95980.84;110511;1241;59746;-62
2024/02/11 01:24:30;;;;;;;;;;;;;;;8.65;100.00;95979.71;110529;1238;59651;-63
2024/02/11 01:26:59;;;;;;;;;;;;;;;8.61;100.00;95976.73;110509;1238;71365;-63
2024/02/11 01:29:28;;;;;;;;;;;;;;;8.58;100.00;95980.98;110553;1242;69823;-63
2024/02/11 01:31:58;;;;;;;;;;;;;;;8.58;100.00;95973.23;110512;1242;69305;-63
2024/02/11 01:34:28;;;;;;;;;;;;;;;8.56;100.00;95958.95;110539;1240;60049;-62
2024/02/11 01:36:57;;;;;;;;;;;;;;;8.56;100.00;95962.08;110574;1238;59673;-62
2024/02/11 01:39:26;;;;;;;;;;;;;;;8.56;100.00;95957.25;110566;1238;71418;-62
2024/02/11 01:41:55;;;;;;;;;;;;;;;8.54;100.00;95943.89;110510;1241;69249;-62
2024/02/11 01:44:23;;;;;;;;;;;;;;;8.52;100.00;95944.74;110426;1238;69581;-62
2024/02/11 01:46:52;;;;;;;;;;;;;;;8.49;100.00;95940.17;110517;1241;59742;-62
2024/02/11 01:49:22;;;;;;;;;;;;;;;8.47;100.00;95936.19;110421;1241;59654;-62
2024/02/11 01:51:51;;;;;;;;;;;;;;;8.45;100.00;95935.86;110380;1241;70822;-62
2024/02/11 01:54:21;;;;;;;;;;;;;;;8.42;100.00;95939.00;110394;1240;69743;-62
2024/02/11 01:56:50;;;;;;;;;;;;;;;8.40;100.00;95935.00;110383;1240;69842;-62
2024/02/11 01:59:19;;;;;;;;;;;;;;;8.37;100.00;95938.39;110413;1238;59751;-62
2024/02/11 02:01:49;;;;;;;;;;;;;;;8.36;100.00;95934.16;110410;1241;59687;-62
2024/02/11 02:04:18;;;;;;;;;;;;;;;8.37;100.00;95929.08;110475;1239;70369;-62
2024/02/11 02:06:49;;;;;;;;;;;;;;;8.38;100.00;95936.41;110397;1241;69211;-62
2024/02/11 02:09:17;;;;;;;;;;;;;;;8.40;99.66;95936.91;110530;1238;69955;-62
2024/02/11 02:11:46;;;;;;;;;;;;;;;8.45;100.00;95937.39;110401;1238;59731;-62
2024/02/11 02:14:15;;;;;;;;;;;;;;;8.44;100.00;95934.02;110356;1241;59693;-62
2024/02/11 02:16:45;;;;;;;;;;;;;;;8.39;100.00;95932.67;110398;1247;71964;-62
2024/02/11 02:19:14;;;;;;;;;;;;;;;8.35;100.00;95932.29;110383;1238;69196;-62
2024/02/11 02:21:47;;;;;;;;;;;;;;;8.32;100.00;95933.98;110395;1238;69217;-62
2024/02/11 02:24:16;;;;;;;;;;;;;;;8.29;100.00;95931.27;110363;1241;59675;-62
2024/02/11 02:26:46;;;;;;;;;;;;;;;8.28;100.00;95929.29;110460;1240;59666;-62
2024/02/11 02:29:15;;;;;;;;;;;;;;;8.29;100.00;95926.29;110508;1242;71150;-62
2024/02/11 02:31:44;;;;;;;;;;;;;;;8.28;100.00;95924.08;110411;1241;69779;-61
2024/02/11 02:34:13;;;;;;;;;;;;;;;8.29;100.00;95920.90;110412;1238;68986;-61
2024/02/11 02:36:42;;;;;;;;;;;;;;;8.30;100.00;95919.20;110358;1240;59735;-62
2024/02/11 02:39:13;;;;;;;;;;;;;;;8.32;100.00;95916.55;110385;1242;59681;-62
2024/02/11 02:41:42;;;;;;;;;;;;;;;8.35;100.00;95918.24;110426;1238;72073;-62
2024/02/11 02:44:10;;;;;;;;;;;;;;;8.37;100.00;95924.88;110451;1240;69643;-62
2024/02/11 02:46:39;;;;;;;;;;;;;;;8.39;99.98;95920.52;110411;1238;69999;-62
2024/02/11 02:49:08;;;;;;;;;;;;;;;8.42;98.95;95920.30;110370;1238;59727;-62
2024/02/11 02:51:41;;;;;;;;;;;;;;;8.46;98.86;95922.03;110426;1238;59683;-62
2024/02/11 02:54:12;;;;;;;;;;;;;;;8.51;99.02;95917.63;110437;1238;71323;-62
2024/02/11 02:56:41;;;;;;;;;;;;;;;8.54;98.75;95920.41;110351;1241;69869;-62
2024/02/11 02:59:10;;;;;;;;;;;;;;;8.57;99.43;95917.38;110342;1238;69317;-62
2024/02/11 03:01:39;;;;;;;;;;;;;;;8.59;99.39;95909.71;110419;1242;59766;-62
2024/02/11 03:04:08;;;;;;;;;;;;;;;8.61;99.28;95902.23;110402;1242;59636;-62
2024/02/11 03:06:37;;;;;;;;;;;;;;;8.62;98.78;95898.34;110371;1241;71804;-62
2024/02/11 03:09:06;;;;;;;;;;;;;;;8.63;98.68;95890.46;110443;1238;69567;-62
2024/02/11 03:11:35;;;;;;;;;;;;;;;8.62;99.12;95878.38;110370;1242;69101;-62
2024/02/11 03:14:04;;;;;;;;;;;;;;;8.60;99.32;95867.27;110405;1241;59750;-62
2024/02/11 03:16:33;;;;;;;;;;;;;;;8.57;99.63;95854.38;110501;1238;59644;-62
2024/02/11 03:19:05;;;;;;;;;;;;;;;8.55;99.12;95847.21;110404;1241;71362;-62
2024/02/11 03:21:34;;;;;;;;;;;;;;;8.55;98.79;95844.50;110371;1241;69137;-62
2024/02/11 03:24:04;;;;;;;;;;;;;;;8.55;99.13;95841.66;110340;1241;69989;-62
2024/02/11 03:26:33;;;;;;;;;;;;;;;8.54;99.25;95835.65;110369;1241;59986;-62
2024/02/11 03:29:03;;;;;;;;;;;;;;;8.55;99.63;95834.73;110383;1238;59764;-62
2024/02/11 03:31:32;;;;;;;;;;;;;;;8.55;99.20;95841.55;110394;1241;71937;-62
2024/02/11 03:34:04;;;;;;;;;;;;;;;8.55;99.15;95841.02;110384;1238;69390;-62
2024/02/11 03:36:33;;;;;;;;;;;;;;;8.54;99.88;95842.11;110390;1241;69250;-62
2024/02/11 03:39:08;;;;;;;;;;;;;;;8.53;99.97;95845.01;110390;1241;59747;-62
2024/02/11 03:41:38;;;;;;;;;;;;;;;8.48;100.00;95832.42;110363;1242;60116;-62
2024/02/11 03:44:07;;;;;;;;;;;;;;;8.47;100.00;95831.52;110434;1238;71374;-61
2024/02/11 03:46:35;;;;;;;;;;;;;;;8.45;99.98;95824.14;110422;1241;69698;-61
2024/02/11 03:49:04;;;;;;;;;;;;;;;8.44;99.96;95824.14;110350;1241;69860;-61
2024/02/11 03:51:33;;;;;;;;;;;;;;;8.42;99.91;95818.20;110392;1238;59711;-62
2024/02/11 03:54:03;;;;;;;;;;;;;;;8.42;99.96;95809.73;110369;1241;59666;-61
2024/02/11 03:56:34;;;;;;;;;;;;;;;8.42;99.93;95805.74;110429;1240;71794;-62
2024/02/11 03:59:03;;;;;;;;;;;;;;;8.41;99.67;95796.75;110375;1241;69218;-62
2024/02/11 04:01:33;;;;;;;;;;;;;;;8.41;99.29;95795.00;110393;1240;70082;-62
2024/02/11 04:04:04;;;;;;;;;;;;;;;8.44;99.10;95800.34;110427;1238;59756;-62
2024/02/11 04:06:34;;;;;;;;;;;;;;;8.44;98.72;95794.98;110469;1241;59737;-62
2024/02/11 04:09:03;;;;;;;;;;;;;;;8.44;99.18;95794.78;110424;1238;71916;-62
2024/02/11 04:11:32;;;;;;;;;;;;;;;8.44;99.20;95794.75;110438;1242;69669;-61
2024/02/11 04:14:01;;;;;;;;;;;;;;;8.44;99.12;95793.93;110366;1238;69834;-62
2024/02/11 04:16:30;;;;;;;;;;;;;;;8.40;99.20;95794.20;110413;1241;59651;-62
2024/02/11 04:18:59;;;;;;;;;;;;;;;8.40;99.67;95791.65;110377;1238;59702;-62
2024/02/11 04:21:32;;;;;;;;;;;;;;;8.39;99.78;95789.63;110380;1238;71331;-62
2024/02/11 04:24:01;;;;;;;;;;;;;;;8.39;99.79;95787.88;110351;1238;68642;-62
2024/02/11 04:26:29;;;;;;;;;;;;;;;8.39;99.92;95777.71;110479;1240;69980;-62
2024/02/11 04:28:58;;;;;;;;;;;;;;;8.38;100.00;95773.73;110345;1245;59696;-62
2024/02/11 04:31:31;;;;;;;;;;;;;;;8.39;100.00;95767.40;110441;1241;59627;-62
2024/02/11 04:34:00;;;;;;;;;;;;;;;8.42;99.87;95761.27;110383;1240;72057;-62
2024/02/11 04:36:30;;;;;;;;;;;;;;;8.45;99.15;95758.93;110387;1240;69398;-62
2024/02/11 04:38:59;;;;;;;;;;;;;;;8.47;99.22;95758.38;110326;1238;69409;-62
2024/02/11 04:41:28;;;;;;;;;;;;;;;8.51;98.97;95762.18;110430;1238;59699;-62
2024/02/11 04:43:57;;;;;;;;;;;;;;;8.52;98.94;95761.36;110452;1241;59710;-61
2024/02/11 04:46:26;;;;;;;;;;;;;;;8.53;98.77;95762.84;110413;1238;69904;-62
2024/02/11 04:48:56;;;;;;;;;;;;;;;8.53;99.02;95762.89;110381;1241;69844;-62
2024/02/11 04:51:27;;;;;;;;;;;;;;;8.53;98.94;95759.96;110349;1242;70293;-62
2024/02/11 04:53:59;;;;;;;;;;;;;;;8.53;99.06;95758.70;110425;1239;59734;-62
2024/02/11 04:56:28;;;;;;;;;;;;;;;8.54;98.88;95757.89;110447;1240;59711;-62
2024/02/11 04:59:01;;;;;;;;;;;;;;;8.55;98.53;95762.16;110396;1241;70826;-62
2024/02/11 05:01:31;;;;;;;;;;;;;;;8.56;98.25;95766.93;110425;1240;69693;-62
2024/02/11 05:04:01;;;;;;;;;;;;;;;8.56;98.36;95762.90;110395;1242;68836;-62
2024/02/11 05:06:31;;;;;;;;;;;;;;;8.57;97.98;95766.65;110392;1241;59720;-62
2024/02/11 05:09:00;;;;;;;;;;;;;;;8.57;97.54;95766.48;110490;1240;59746;-62
2024/02/11 05:11:29;;;;;;;;;;;;;;;8.59;97.96;95770.14;110448;1238;71368;-62
2024/02/11 05:13:58;;;;;;;;;;;;;;;8.58;97.36;95776.06;110440;1238;69027;-62
2024/02/11 05:16:28;;;;;;;;;;;;;;;8.59;97.45;95776.17;110438;1238;68348;-62
2024/02/11 05:18:57;;;;;;;;;;;;;;;8.61;97.93;95773.41;110350;1238;59702;-62
2024/02/11 05:21:25;;;;;;;;;;;;;;;8.60;97.87;95773.31;110507;1241;59675;-61
2024/02/11 05:23:55;;;;;;;;;;;;;;;8.60;97.81;95775.09;110494;1238;71812;-61
2024/02/11 05:26:24;;;;;;;;;;;;;;;8.59;97.79;95773.91;110442;1242;69923;-61
2024/02/11 05:28:53;;;;;;;;;;;;;;;8.59;98.00;95773.55;110427;1240;69093;-61
2024/02/11 05:31:23;;;;;;;;;;;;;;;8.59;98.02;95780.51;110476;1238;59737;-61
2024/02/11 05:33:52;;;;;;;;;;;;;;;8.58;98.10;95787.04;110506;1238;59749;-61
2024/02/11 05:36:21;;;;;;;;;;;;;;;8.57;97.61;95787.98;110479;1238;71373;-61
2024/02/11 05:38:49;;;;;;;;;;;;;;;8.60;96.44;95792.58;110519;1238;69956;-61
2024/02/11 05:41:18;;;;;;;;;;;;;;;8.67;93.96;95790.41;110533;1238;69222;-61
2024/02/11 05:43:47;;;;;;;;;;;;;;;8.83;93.04;95780.10;110329;1241;59753;-61
2024/02/11 05:46:16;;;;;;;;;;;;;;;8.96;93.52;95778.17;110413;1242;59658;-61
2024/02/11 05:48:45;;;;;;;;;;;;;;;9.03;93.47;95775.52;110381;1241;71297;-61
2024/02/11 05:51:14;;;;;;;;;;;;;;;9.06;93.19;95771.70;110473;1238;69377;-61
2024/02/11 05:53:42;;;;;;;;;;;;;;;9.12;92.77;95774.45;110365;1238;69304;-61
2024/02/11 05:56:13;;;;;;;;;;;;;;;9.17;92.10;95777.09;110308;1238;59754;-61
2024/02/11 05:58:42;;;;;;;;;;;;;;;9.21;90.95;95779.75;110386;1241;59684;-61
2024/02/11 06:01:10;;;;;;;;;;;;;;;9.21;90.20;95780.59;110429;1238;70899;-61
2024/02/11 06:03:40;;;;;;;;;;;;;;;9.25;90.28;95780.61;110521;1241;68238;-61
2024/02/11 06:06:08;;;;;;;;;;;;;;;9.29;89.04;95783.03;110318;1241;69311;-61
2024/02/11 06:08:37;;;;;;;;;;;;;;;9.34;89.45;95782.71;110363;1238;59740;-61
2024/02/11 06:11:06;;;;;;;;;;;;;;;9.39;89.73;95780.86;110434;1240;59672;-61
2024/02/11 06:13:36;;;;;;;;;;;;;;;9.42;89.98;95781.17;110393;1238;71296;-61
2024/02/11 06:16:06;;;;;;;;;;;;;;;9.47;89.35;95775.88;109944;1238;601522;-61
2024/02/11 06:18:36;;;;;;;;;;;;;;;9.51;87.88;95778.31;110378;1238;69921;-61
2024/02/11 06:21:05;;;;;;;;;;;;;;;9.53;88.48;95779.64;110449;1241;59696;-61
2024/02/11 06:23:36;;;;;;;;;;;;;;;9.56;89.34;95777.27;110374;1241;59687;-61
2024/02/11 06:26:05;;;;;;;;;;;;;;;9.59;88.39;95781.67;110446;1238;72014;-61
2024/02/11 06:28:34;;;;;;;;;;;;;;;9.64;87.07;95786.09;110399;1238;69074;-61
2024/02/11 06:31:05;;;;;;;;;;;;;;;9.70;85.82;95779.15;110380;1238;69219;-62
2024/02/11 06:33:34;;;;;;;;;;;;;;;9.77;84.77;95773.09;110403;1242;59636;-61
2024/02/11 06:36:05;;;;;;;;;;;;;;;9.84;83.96;95775.50;110400;1240;59685;-61
2024/02/11 06:38:36;;;;;;;;;;;;;;;9.94;83.41;95778.77;110435;1238;71380;-61
2024/02/11 06:41:05;;;;;;;;;;;;;;;10.05;82.57;95770.55;110384;1238;69313;-61
2024/02/11 06:43:34;;;;;;;;;;;;;;;10.15;81.52;95765.34;110456;1238;68572;-61
2024/02/11 06:46:04;;;;;;;;;;;;;;;10.24;80.55;95775.01;110469;1238;59737;-61
2024/02/11 06:48:32;;;;;;;;;;;;;;;10.30;79.96;95773.20;110378;1241;59687;-61
2024/02/11 06:51:01;;;;;;;;;;;;;;;10.37;79.67;95764.52;110442;1241;71351;-61
2024/02/11 06:53:30;;;;;;;;;;;;;;;10.47;78.05;95767.31;110387;1238;69657;-61
2024/02/11 06:55:59;;;;;;;;;;;;;;;10.56;77.92;95764.19;110431;1241;69071;-61
2024/02/11 06:58:29;;;;;;;;;;;;;;;10.65;76.51;95755.63;110349;1242;59748;-61
2024/02/11 07:00:59;;;;;;;;;;;;;;;10.72;74.88;95758.23;110428;1241;59729;-61
2024/02/11 07:03:28;;;;;;;;;;;;;;;10.81;75.66;95753.88;110432;1241;72236;-62
2024/02/11 07:05:57;;;;;;;;;;;;;;;10.89;75.67;95765.11;110390;1242;69707;-62
2024/02/11 07:08:27;;;;;;;;;;;;;;;10.98;75.02;95764.23;110434;1240;68465;-61
2024/02/11 07:10:56;;;;;;;;;;;;;;;11.06;75.07;95761.50;110375;1238;59737;-61
2024/02/11 07:13:25;;;;;;;;;;;;;;;11.16;75.61;95766.55;110467;1241;59622;-61
2024/02/11 07:15:56;;;;;;;;;;;;;;;11.23;73.94;95767.90;110477;1240;71761;-61
2024/02/11 07:18:26;;;;;;;;;;;;;;;11.33;72.80;95764.02;110466;1241;69742;-61
2024/02/11 07:20:56;;;;;;;;;;;;;;;11.42;72.30;95763.58;110388;1241;69547;-61
2024/02/11 07:23:26;;;;;;;;;;;;;;;11.52;72.13;95764.80;110390;1238;59737;-61
2024/02/11 07:25:55;;;;;;;;;;;;;;;11.62;72.16;95761.15;110470;1240;59669;-61
2024/02/11 07:28:25;;;;;;;;;;;;;;;11.72;70.85;95765.70;110467;1240;71996;-61
2024/02/11 07:30:56;;;;;;;;;;;;;;;11.81;69.13;95768.63;110579;1238;68620;-61
2024/02/11 07:33:25;;;;;;;;;;;;;;;11.88;68.43;95773.52;110401;1240;70324;-61
2024/02/11 07:35:53;;;;;;;;;;;;;;;11.96;67.92;95779.35;110401;1241;59661;-61
2024/02/11 07:38:23;;;;;;;;;;;;;;;12.02;67.63;95774.46;110361;1238;59690;-61
2024/02/11 07:40:53;;;;;;;;;;;;;;;12.08;67.10;95779.97;110424;1241;71373;-61
2024/02/11 07:43:25;;;;;;;;;;;;;;;12.15;66.52;95780.65;110400;1238;69085;-61
2024/02/11 07:45:57;;;;;;;;;;;;;;;12.20;65.22;95787.60;110469;1238;69914;-61
2024/02/11 07:48:27;;;;;;;;;;;;;;;12.29;66.09;95795.92;110449;1240;59760;-61
2024/02/11 07:50:56;;;;;;;;;;;;;;;12.35;63.95;95791.64;110454;1238;59743;-62
2024/02/11 07:53:25;;;;;;;;;;;;;;;12.41;64.70;95794.34;110450;1241;71219;-61
2024/02/11 07:55:54;;;;;;;;;;;;;;;12.46;64.15;95791.86;110409;1241;69679;-61
2024/02/11 07:58:23;;;;;;;;;;;;;;;12.51;64.67;95799.03;110454;1241;68194;-61
2024/02/11 08:00:52;;;;;;;;;;;;;;;12.53;63.06;95807.33;110543;1242;59754;-61
2024/02/11 08:03:21;;;;;;;;;;;;;;;12.57;61.29;95798.41;110538;1238;59670;-61
2024/02/11 08:05:52;;;;;;;;;;;;;;;12.67;62.08;95790.46;110530;1238;72536;-61
2024/02/11 08:08:21;;;;;;;;;;;;;;;12.75;61.94;95792.02;110522;1238;69061;-62
2024/02/11 08:10:51;;;;;;;;;;;;;;;12.84;61.41;95793.21;110473;1238;69723;-62
2024/02/11 08:13:20;;;;;;;;;;;;;;;12.93;61.43;95785.28;110540;1240;59712;-61
2024/02/11 08:15:49;;;;;;;;;;;;;;;13.02;61.90;95780.67;110598;1241;61186;-62
2024/02/11 08:18:18;;;;;;;;;;;;;;;13.09;60.94;95773.94;110635;1238;71886;-62
2024/02/11 08:20:47;;;;;;;;;;;;;;;13.18;60.06;95776.71;110526;1238;70161;-62
2024/02/11 08:23:15;;;;;;;;;;;;;;;13.24;59.54;95773.86;110442;1238;69833;-62
2024/02/11 08:25:45;;;;;;;;;;;;;;;13.28;58.82;95772.52;110362;1240;59734;-62
2024/02/11 08:28:14;;;;;;;;;;;;;;;13.35;58.84;95773.27;110437;1240;59731;-62
2024/02/11 08:30:43;;;;;;;;;;;;;;;13.40;59.06;95778.63;110406;1239;71624;-62
2024/02/11 08:33:12;;;;;;;;;;;;;;;13.44;57.70;95782.64;110443;1238;69083;-62
2024/02/11 08:35:42;;;;;;;;;;;;;;;13.48;57.81;95778.44;110486;1242;68746;-62
2024/02/11 08:38:10;;;;;;;;;;;;;;;13.53;58.27;95775.23;110425;1238;59705;-62
2024/02/11 08:40:39;;;;;;;;;;;;;;;13.57;57.41;95779.16;110433;1241;59671;-62
2024/02/11 08:43:08;;;;;;;;;;;;;;;13.62;56.89;95774.45;110389;1241;71316;-62
2024/02/11 08:45:37;;;;;;;;;;;;;;;13.64;56.65;95778.15;110414;1238;69213;-62
2024/02/11 08:48:06;;;;;;;;;;;;;;;13.61;55.86;95779.37;110451;1238;69846;-62
2024/02/11 08:50:35;;;;;;;;;;;;;;;13.69;56.73;95777.02;110513;1240;59737;-62
2024/02/11 08:53:05;;;;;;;;;;;;;;;13.68;57.26;95771.66;110496;1241;59686;-62
2024/02/11 08:55:33;;;;;;;;;;;;;;;13.72;57.26;95768.03;110504;1241;71890;-62
2024/02/11 08:58:04;;;;;;;;;;;;;;;13.74;56.25;95770.40;110454;1241;69227;-62
2024/02/11 09:00:33;;;;;;;;;;;;;;;13.72;55.07;95771.88;110442;1238;70130;-62
2024/02/11 09:03:02;;;;;;;;;;;;;;;13.77;55.90;95774.19;110458;1241;59720;-62
2024/02/11 09:05:34;;;;;;;;;;;;;;;13.74;55.40;95779.52;110486;1241;59635;-62
2024/02/11 09:08:03;;;;;;;;;;;;;;;13.72;55.40;95784.61;110532;1240;71213;-62
2024/02/11 09:10:32;;;;;;;;;;;;;;;13.71;55.97;95782.35;110470;1238;69731;-62
2024/02/11 09:13:01;;;;;;;;;;;;;;;13.67;55.71;95787.33;110445;1238;69266;-62
2024/02/11 09:15:30;;;;;;;;;;;;;;;13.64;55.21;95779.92;110462;1238;59757;-62
2024/02/11 09:17:59;;;;;;;;;;;;;;;13.67;54.80;95781.23;110371;1238;59705;-62
2024/02/11 09:20:28;;;;;;;;;;;;;;;13.67;54.12;95787.27;110401;1241;70373;-62
2024/02/11 09:22:57;;;;;;;;;;;;;;;13.67;53.82;95787.61;110383;1238;69326;-63
2024/02/11 09:25:28;;;;;;;;;;;;;;;13.69;53.54;95793.00;110359;1241;69181;-62
2024/02/11 09:27:58;;;;;;;;;;;;;;;13.71;53.65;95799.13;110406;1240;59748;-62
2024/02/11 09:30:27;;;;;;;;;;;;;;;13.71;53.45;95801.19;110401;1240;59699;-62
2024/02/11 09:32:55;;;;;;;;;;;;;;;13.71;53.50;95799.81;110393;1238;70880;-61
2024/02/11 09:35:25;;;;;;;;;;;;;;;13.70;53.32;95801.73;110437;1238;69403;-62
2024/02/11 09:37:54;;;;;;;;;;;;;;;13.69;53.64;95808.23;110418;1240;69852;-61
2024/02/11 09:40:23;;;;;;;;;;;;;;;13.69;53.36;95806.32;110381;1240;59621;-62
2024/02/11 09:42:53;;;;;;;;;;;;;;;13.69;53.48;95802.85;110532;1241;59678;-64
2024/02/11 09:45:23;;;;;;;;;;;;;;;13.69;53.01;95802.13;110406;1241;71661;-61
2024/02/11 09:47:53;;;;;;;;;;;;;;;13.71;52.87;95800.90;110409;1240;69673;-62
2024/02/11 09:50:23;;;;;;;;;;;;;;;13.73;51.44;95799.05;110349;1238;69694;-61
2024/02/11 09:52:53;;;;;;;;;;;;;;;13.81;50.96;95792.30;110389;1238;59652;-61
2024/02/11 09:55:22;;;;;;;;;;;;;;;13.87;51.69;95792.06;110388;1238;59652;-61
2024/02/11 09:57:51;;;;;;;;;;;;;;;13.90;51.13;95790.19;110397;1248;71250;-61
2024/02/11 10:00:20;;;;;;;;;;;;;;;13.95;51.39;95792.02;110389;1238;69227;-61
2024/02/11 10:02:49;;;;;;;;;;;;;;;13.99;51.33;95790.77;110364;1241;69774;-62
2024/02/11 10:05:23;;;;;;;;;;;;;;;14.01;51.83;95791.38;110362;1240;59704;-63
2024/02/11 10:07:54;;;;;;;;;;;;;;;14.02;52.08;95790.46;110507;1238;59679;-61
2024/02/11 10:10:23;;;;;;;;;;;;;;;14.02;52.73;95790.02;110470;1242;70488;-62
2024/02/11 10:12:54;;;;;;;;;;;;;;;14.03;51.84;95784.77;110434;1240;69716;-61
2024/02/11 10:15:25;;;;;;;;;;;;;;;14.07;51.84;95776.92;110362;1241;69392;-61
2024/02/11 10:17:53;;;;;;;;;;;;;;;14.12;51.51;95766.20;110613;1247;59705;-61
2024/02/11 10:20:22;;;;;;;;;;;;;;;14.19;51.60;95758.41;110620;1242;59740;-62
2024/02/11 10:22:51;;;;;;;;;;;;;;;14.25;51.15;95755.89;110439;1241;71847;-62
2024/02/11 10:25:22;;;;;;;;;;;;;;;14.36;51.39;95754.88;110449;1242;69911;-62
2024/02/11 10:27:52;;;;;;;;;;;;;;;14.47;50.94;95746.20;110424;1242;69153;-62
2024/02/11 10:30:21;;;;;;;;;;;;;;;14.59;51.13;95747.39;110389;1242;59664;-62
2024/02/11 10:32:49;;;;;;;;;;;;;;;14.69;50.43;95743.75;110367;1240;59698;-62
2024/02/11 10:35:18;;;;;;;;;;;;;;;14.86;50.66;95741.79;110382;1242;69824;-63
2024/02/11 10:37:48;;;;;;;;;;;;;;;15.11;49.97;95737.27;110467;1241;69262;-63
2024/02/11 10:40:24;;;;;;;;;;;;;;;15.74;48.98;95741.86;110396;1240;69158;-62
2024/02/11 10:42:54;;;;;;;;;;;;;;;16.53;49.65;95736.61;110544;1240;59683;-61
2024/02/11 10:45:25;;;;;;;;;;;;;;;17.31;49.70;95729.45;110470;1241;59665;-61
2024/02/11 10:47:53;;;;;;;;;;;;;;;17.92;46.87;95727.23;110450;1238;71763;-62
2024/02/11 10:50:23;;;;;;;;;;;;;;;18.41;45.78;95728.26;110452;1238;69177;-61
2024/02/11 10:52:55;;;;;;;;;;;;;;;18.60;43.72;95717.01;110449;1241;69726;-61
2024/02/11 10:55:24;;;;;;;;;;;;;;;18.65;42.85;95711.37;110365;1238;59805;-61
2024/02/11 10:57:54;;;;;;;;;;;;;;;18.67;42.43;95712.05;110533;1240;59702;-61
2024/02/11 11:00:24;;;;;;;;;;;;;;;19.15;42.42;95708.08;110426;1240;71959;-61
2024/02/11 11:03:01;;;;;;;;;;;;;;;19.67;41.24;95711.73;110509;1240;68271;-61
2024/02/11 11:05:32;;;;;;;;;;;;;;;19.97;41.17;95710.48;110490;1240;69220;-62
2024/02/11 11:08:01;;;;;;;;;;;;;;;20.05;39.37;95707.65;110482;1239;60115;-61
2024/02/11 11:10:36;;;;;;;;;;;;;;;20.26;39.27;95709.91;110406;1242;59648;-63
2024/02/11 11:13:08;;;;;;;;;;;;;;;20.51;38.56;95701.67;110497;1241;71404;-63
2024/02/11 11:15:37;;;;;;;;;;;;;;;20.57;38.83;95701.02;110495;1241;69156;-63
2024/02/11 11:18:09;;;;;;;;;;;;;;;20.53;38.57;95707.94;110407;1238;69222;-61
2024/02/11 11:20:49;;;;;;;;;;;;;;;20.46;37.05;95702.38;110450;1241;59723;-62
2024/02/11 11:23:18;;;;;;;;;;;;;;;20.07;36.90;95699.58;110441;1242;59675;-64
2024/02/11 11:25:53;;;;;;;;;;;;;;;19.92;38.03;95693.77;110417;1240;71887;-61
2024/02/11 11:28:27;;;;;;;;;;;;;;;19.88;38.34;95693.88;110468;1241;69887;-61
2024/02/11 11:30:57;;;;;;;;;;;;;;;19.65;38.11;95686.81;110469;1240;69919;-62
2024/02/11 11:33:29;;;;;;;;;;;;;;;19.48;38.27;95686.54;110386;1241;59735;-61
2024/02/11 11:36:02;;;;;;;;;;;;;;;19.24;38.83;95683.50;110390;1238;59740;-61
2024/02/11 11:38:31;;;;;;;;;;;;;;;19.13;39.43;95684.75;110393;1240;71990;-62
2024/02/11 11:41:00;;;;;;;;;;;;;;;19.03;39.55;95680.52;110404;1238;69183;-61
2024/02/11 11:43:32;;;;;;;;;;;;;;;18.92;39.41;95672.39;110427;1240;69052;-61
2024/02/11 11:46:04;;;;;;;;;;;;;;;18.89;39.69;95673.41;110521;1242;59664;-61
2024/02/11 11:48:35;;;;;;;;;;;;;;;18.85;39.45;95675.58;110516;1242;59683;-61
2024/02/11 11:51:10;;;;;;;;;;;;;;;18.66;39.64;95668.40;110527;1241;71218;-61
2024/02/11 11:53:43;;;;;;;;;;;;;;;18.46;39.48;95665.46;110567;1238;69734;-61
2024/02/11 11:56:14;;;;;;;;;;;;;;;18.39;40.42;95661.42;110523;1242;69203;-61
2024/02/11 11:58:43;;;;;;;;;;;;;;;18.32;40.73;95661.91;110536;1242;59700;-61
2024/02/11 12:01:11;;;;;;;;;;;;;;;18.23;40.65;95658.31;110552;1240;59642;-61
2024/02/11 12:03:41;;;;;;;;;;;;;;;18.27;41.19;95656.20;110601;1242;71232;-62
2024/02/11 12:06:11;;;;;;;;;;;;;;;18.33;40.73;95652.38;110391;1240;70132;-62
2024/02/11 12:08:39;;;;;;;;;;;;;;;18.36;39.98;95644.86;110422;1240;69255;-62
2024/02/11 12:11:09;;;;;;;;;;;;;;;18.41;40.12;95648.20;110445;1242;59660;-62
2024/02/11 12:13:38;;;;;;;;;;;;;;;18.46;39.05;95648.16;110430;1241;59646;-62
2024/02/11 12:16:15;;;;;;;;;;;;;;;18.72;38.77;95642.31;110401;1240;72129;-61
2024/02/11 12:18:45;;;;;;;;;;;;;;;19.06;37.97;95640.79;110404;1248;69700;-61
2024/02/11 12:21:15;;;;;;;;;;;;;;;19.38;37.11;95641.77;110501;1240;69226;-63
2024/02/11 12:23:44;;;;;;;;;;;;;;;19.79;36.80;95635.95;110437;1241;59692;-61
2024/02/11 12:26:18;;;;;;;;;;;;;;;20.32;35.87;95629.05;110406;1242;59623;-62
2024/02/11 12:28:50;;;;;;;;;;;;;;;20.72;35.24;95615.16;110376;1243;71285;-61
2024/02/11 12:31:20;;;;;;;;;;;;;;;20.80;34.93;95617.70;110465;1238;69102;-62
2024/02/11 12:33:50;;;;;;;;;;;;;;;20.74;34.65;95617.69;110391;1240;70098;-61
2024/02/11 12:36:23;;;;;;;;;;;;;;;20.60;34.37;95622.25;110452;1242;59681;-61
2024/02/11 12:38:53;;;;;;;;;;;;;;;20.43;34.60;95624.73;110482;1242;59674;-61
2024/02/11 12:41:23;;;;;;;;;;;;;;;20.76;34.81;95624.64;110472;1240;71865;-61
2024/02/11 12:43:53;;;;;;;;;;;;;;;21.35;33.83;95625.98;110483;1242;69278;-60
2024/02/11 12:46:22;;;;;;;;;;;;;;;21.60;33.11;95620.45;110489;1238;69292;-61
2024/02/11 12:48:50;;;;;;;;;;;;;;;21.64;33.11;95616.35;110407;1239;59740;-63
2024/02/11 12:51:19;;;;;;;;;;;;;;;21.97;33.04;95623.86;110398;1240;59729;-61
2024/02/11 12:53:48;;;;;;;;;;;;;;;22.28;32.47;95618.48;110429;1238;71342;-63